Time;durP1;ratioP1;P1;durP2;ratioP2;P2;SDS_P1;SDS_P2;PMS_P1;PMS_P2;Temp;Humidity;BMP_temperature;BMP_pressure;BME280_temperature;BME280_humidity;BME280_pressure;Samples;Min_cycle;Max_cycle;Signal;HPM_P1;HPM_P2
2021/05/04 00:01:40;;;;;;;6.00;5.43;;;;;;;14.90;61.39;95115.25;5055209;28;21105;-76
2021/05/04 00:04:06;;;;;;;4.90;4.40;;;;;;;14.78;61.67;95105.91;5074192;28;20450;-76
2021/05/04 00:06:33;;;;;;;5.60;5.10;;;;;;;14.72;62.03;95109.94;5074132;28;20847;-77
2021/05/04 00:08:59;;;;;;;5.20;4.70;;;;;;;14.66;62.03;95107.09;5073984;28;20445;-76
2021/05/04 00:11:25;;;;;;;11.83;5.20;;;;;;;14.62;61.79;95111.84;5074135;28;20534;-76
2021/05/04 00:13:52;;;;;;;5.93;5.27;;;;;;;14.62;61.73;95114.47;5055294;28;20437;-76
2021/05/04 00:16:19;;;;;;;6.47;5.87;;;;;;;14.61;61.59;95112.00;5073565;28;20444;-76
2021/05/04 00:18:46;;;;;;;6.63;5.70;;;;;;;14.66;61.27;95117.66;5073650;28;20956;-76
2021/05/04 00:21:12;;;;;;;9.17;5.80;;;;;;;14.76;61.20;95108.69;5073513;28;20484;-76
2021/05/04 00:23:38;;;;;;;6.27;5.70;;;;;;;14.86;60.74;95117.38;5073769;28;20431;-76
2021/05/04 00:26:05;;;;;;;7.63;5.93;;;;;;;14.93;60.37;95119.41;5073794;28;20453;-76
2021/05/04 00:28:31;;;;;;;6.27;5.67;;;;;;;14.97;59.59;95118.13;5074000;28;20444;-76
2021/05/04 00:30:57;;;;;;;9.03;6.13;;;;;;;14.96;59.52;95124.38;5073278;28;20441;-76
2021/05/04 00:33:24;;;;;;;6.53;5.10;;;;;;;14.94;59.76;95124.53;5073765;28;20889;-77
2021/05/04 00:35:51;;;;;;;7.07;5.33;;;;;;;14.98;58.97;95127.72;5073479;28;20507;-76
2021/05/04 00:38:17;;;;;;;6.37;5.77;;;;;;;15.02;59.33;95131.69;5073448;28;20432;-76
2021/05/04 00:40:44;;;;;;;11.90;5.90;;;;;;;15.08;59.20;95131.13;5073378;28;20459;-76
2021/05/04 00:43:10;;;;;;;5.43;5.03;;;;;;;15.13;58.85;95142.06;5073272;28;20488;-76
2021/05/04 00:45:36;;;;;;;5.80;5.30;;;;;;;15.12;58.97;95138.59;5073315;28;20456;-77
2021/05/04 00:48:03;;;;;;;8.40;5.80;;;;;;;15.08;59.10;95139.06;5073450;28;20466;-76
2021/05/04 00:50:29;;;;;;;7.57;5.70;;;;;;;15.07;58.83;95129.47;5073253;28;20445;-76
2021/05/04 00:52:56;;;;;;;5.80;5.30;;;;;;;15.12;59.00;95132.47;5073347;28;20448;-76
2021/05/04 00:55:23;;;;;;;7.13;5.70;;;;;;;15.17;58.87;95132.84;5073649;28;20452;-76
2021/05/04 00:57:50;;;;;;;5.50;5.10;;;;;;;15.22;58.75;95127.09;5073419;28;20452;-76
2021/05/04 01:00:17;;;;;;;5.40;4.90;;;;;;;15.28;58.89;95129.97;5072938;28;20451;-76
2021/05/04 01:02:45;;;;;;;9.63;5.63;;;;;;;15.35;59.36;95123.09;5073152;28;21005;-76
2021/05/04 01:05:12;;;;;;;5.33;4.90;;;;;;;15.39;58.81;95123.63;5073386;28;20450;-75
2021/05/04 01:07:38;;;;;;;5.30;4.80;;;;;;;15.42;59.02;95124.13;5073194;28;20453;-76
2021/05/04 01:10:06;;;;;;;6.43;5.93;;;;;;;15.33;59.31;95124.25;5073207;28;20871;-76
2021/05/04 01:12:33;;;;;;;11.03;5.97;;;;;;;15.14;59.60;95126.06;5073631;28;20491;-75
2021/05/04 01:15:00;;;;;;;6.10;5.50;;;;;;;14.83;60.39;95120.31;5073325;28;20436;-76
2021/05/04 01:17:26;;;;;;;6.27;5.70;;;;;;;14.87;60.79;95126.97;5073003;28;20934;-75
2021/05/04 01:19:53;;;;;;;6.40;5.20;;;;;;;14.94;60.94;95118.44;5072945;28;20970;-76
2021/05/04 01:22:20;;;;;;;7.20;6.50;;;;;;;14.99;61.64;95119.63;5073239;28;20486;-76
2021/05/04 01:24:46;;;;;;;7.83;7.20;;;;;;;15.03;60.55;95122.78;5073514;28;20450;-76
2021/05/04 01:27:14;;;;;;;5.70;5.20;;;;;;;15.05;60.86;95124.34;5072820;28;20486;-76
2021/05/04 01:29:41;;;;;;;8.13;5.23;;;;;;;15.07;61.16;95113.59;5072887;28;20452;-76
2021/05/04 01:32:08;;;;;;;6.13;5.50;;;;;;;15.09;61.56;95125.69;5075717;28;20455;-76
2021/05/04 01:34:34;;;;;;;7.00;5.40;;;;;;;15.10;61.71;95123.88;5076909;28;20527;-76
2021/05/04 01:37:01;;;;;;;5.67;5.27;;;;;;;15.13;61.50;95134.13;5076843;28;20790;-76
2021/05/04 01:39:38;;;;;;;7.80;6.03;;;;;;;15.12;62.28;95130.66;5076403;28;20480;-77
2021/05/04 01:42:05;;;;;;;6.90;5.30;;;;;;;15.08;62.87;95129.31;5076367;28;20484;-75
2021/05/04 01:44:32;;;;;;;6.03;5.53;;;;;;;15.04;62.51;95135.06;5076663;28;20455;-75
2021/05/04 01:46:58;;;;;;;5.97;5.47;;;;;;;15.03;62.78;95130.72;5076471;28;20809;-76
2021/05/04 01:49:24;;;;;;;6.17;5.67;;;;;;;15.03;62.56;95128.06;5076431;28;20477;-75
2021/05/04 01:51:52;;;;;;;6.10;5.60;;;;;;;15.09;62.19;95124.84;5057921;28;20501;-76
2021/05/04 01:54:18;;;;;;;5.37;4.97;;;;;;;15.14;62.64;95123.41;5076850;28;20531;-76
2021/05/04 01:56:46;;;;;;;5.53;5.10;;;;;;;15.10;62.31;95121.22;5076159;28;20448;-75
2021/05/04 01:59:12;;;;;;;7.70;6.10;;;;;;;15.12;62.28;95125.38;5076338;28;20921;-76
2021/05/04 02:01:38;;;;;;;7.07;6.37;;;;;;;15.11;62.82;95129.00;5075890;28;21044;-76
2021/05/04 02:04:05;;;;;;;5.57;5.10;;;;;;;15.15;62.60;95130.34;5076612;28;20452;-76
2021/05/04 02:06:31;;;;;;;5.60;5.20;;;;;;;15.10;62.65;95127.34;5076357;28;20444;-76
2021/05/04 02:08:58;;;;;;;5.87;5.40;;;;;;;15.06;62.24;95130.44;5073733;28;20445;-76
2021/05/04 02:11:24;;;;;;;6.03;5.43;;;;;;;15.05;62.48;95131.44;5056918;28;20839;-76
2021/05/04 02:13:51;;;;;;;6.40;5.80;;;;;;;15.08;62.06;95123.19;5075984;28;20439;-77
2021/05/04 02:16:17;;;;;;;5.77;5.37;;;;;;;15.07;61.93;95126.81;5075968;28;20451;-77
2021/05/04 02:18:44;;;;;;;7.30;6.03;;;;;;;15.03;62.08;95125.44;5075854;28;20990;-76
2021/05/04 02:21:10;;;;;;;5.47;5.00;;;;;;;15.08;61.60;95120.56;5075736;28;20517;-76
2021/05/04 02:23:36;;;;;;;5.80;5.20;;;;;;;15.08;61.94;95118.75;5075697;28;20458;-75
2021/05/04 02:26:03;;;;;;;6.27;5.80;;;;;;;15.10;61.77;95121.22;5073815;28;20452;-75
2021/05/04 02:28:29;;;;;;;10.23;5.70;;;;;;;15.12;61.79;95122.75;5076064;28;20425;-75
2021/05/04 02:30:56;;;;;;;7.00;5.87;;;;;;;15.10;61.90;95121.22;5076276;28;20440;-76
2021/05/04 02:33:24;;;;;;;10.40;5.80;;;;;;;15.13;61.94;95118.28;5075982;28;20447;-76
2021/05/04 02:35:51;;;;;;;7.73;5.50;;;;;;;15.14;61.46;95122.59;5075571;28;20470;-76
2021/05/04 02:38:17;;;;;;;7.40;5.70;;;;;;;15.14;61.85;95112.84;5040312;28;20433;-76
2021/05/04 02:40:43;;;;;;;6.63;5.07;;;;;;;15.17;61.87;95119.63;5075688;28;20453;-76
2021/05/04 02:43:10;;;;;;;5.40;5.00;;;;;;;15.19;61.44;95126.41;5075642;28;20535;-75
2021/05/04 02:45:36;;;;;;;5.83;5.30;;;;;;;15.18;61.87;95134.50;5056774;28;20459;-76
2021/05/04 02:48:04;;;;;;;5.63;5.13;;;;;;;15.21;61.82;95125.44;5075408;28;20445;-75
2021/05/04 02:50:30;;;;;;;5.87;5.47;;;;;;;15.19;61.09;95131.72;5075125;28;20442;-76
2021/05/04 02:52:56;;;;;;;8.03;6.43;;;;;;;15.20;61.67;95135.19;5075489;28;20452;-76
2021/05/04 02:55:23;;;;;;;10.70;5.17;;;;;;;15.15;61.82;95133.00;5073339;28;20457;-76
2021/05/04 02:57:49;;;;;;;5.73;5.23;;;;;;;15.14;62.09;95130.50;5075600;28;20492;-76
2021/05/04 03:00:16;;;;;;;6.83;5.90;;;;;;;15.13;62.12;95137.63;5075399;28;20475;-77
2021/05/04 03:02:42;;;;;;;5.90;5.40;;;;;;;15.14;62.37;95151.66;5075241;28;20483;-76
2021/05/04 03:05:10;;;;;;;7.27;6.00;;;;;;;15.17;62.87;95146.06;5074195;28;20520;-78
2021/05/04 03:07:36;;;;;;;6.27;5.70;;;;;;;15.15;62.86;95150.69;5073978;28;20541;-76
2021/05/04 03:10:04;;;;;;;7.03;5.53;;;;;;;15.11;63.05;95142.22;5073742;28;20967;-76
2021/05/04 03:12:30;;;;;;;8.90;5.07;;;;;;;15.12;62.16;95148.34;5074392;28;20451;-76
2021/05/04 03:14:57;;;;;;;6.60;5.13;;;;;;;15.12;61.14;95149.16;5073113;28;20444;-76
2021/05/04 03:17:23;;;;;;;6.07;5.67;;;;;;;15.01;59.77;95143.25;5074999;28;20447;-76
2021/05/04 03:19:49;;;;;;;6.17;5.57;;;;;;;14.98;59.70;95148.84;5074963;28;20445;-76
2021/05/04 03:22:16;;;;;;;7.30;5.80;;;;;;;14.91;59.58;95155.72;5074970;28;20500;-76
2021/05/04 03:24:43;;;;;;;7.23;5.10;;;;;;;14.91;59.52;95155.72;5074682;28;20456;-76
2021/05/04 03:27:10;;;;;;;6.20;5.77;;;;;;;14.93;59.78;95156.41;5074586;28;20443;-76
2021/05/04 03:29:36;;;;;;;8.53;5.97;;;;;;;14.96;59.33;95161.38;5074702;28;20448;-76
2021/05/04 03:32:03;;;;;;;6.50;5.90;;;;;;;14.98;59.39;95156.78;5074945;28;20444;-76
2021/05/04 03:34:29;;;;;;;7.30;6.43;;;;;;;15.01;59.17;95164.41;5074368;28;20448;-76
2021/05/04 03:36:55;;;;;;;6.80;6.10;;;;;;;15.02;59.12;95158.13;5074445;28;20436;-76
2021/05/04 03:39:23;;;;;;;6.20;5.60;;;;;;;14.98;59.53;95170.00;5074785;28;20443;-76
2021/05/04 03:41:49;;;;;;;6.40;5.80;;;;;;;14.93;59.42;95169.63;5074722;28;20870;-75
2021/05/04 03:44:15;;;;;;;5.40;4.90;;;;;;;14.92;59.31;95176.72;5072515;28;20459;-76
2021/05/04 03:46:43;;;;;;;7.90;5.80;;;;;;;14.86;59.29;95172.03;5074146;28;20957;-76
2021/05/04 03:49:10;;;;;;;7.30;6.10;;;;;;;14.91;58.99;95174.22;5074198;28;20444;-76
2021/05/04 03:51:37;;;;;;;6.20;5.60;;;;;;;14.89;59.35;95177.00;5074668;28;20440;-76
2021/05/04 03:54:04;;;;;;;9.10;5.27;;;;;;;14.90;58.94;95177.84;5073692;28;20466;-75
2021/05/04 03:56:31;;;;;;;10.47;5.37;;;;;;;14.91;58.73;95175.06;5074710;28;20441;-76
2021/05/04 03:58:57;;;;;;;6.30;5.60;;;;;;;14.96;58.71;95169.31;5074161;28;20774;-76
2021/05/04 04:01:23;;;;;;;5.10;4.70;;;;;;;14.96;57.67;95169.31;5073594;28;20452;-76
2021/05/04 04:03:50;;;;;;;7.23;4.63;;;;;;;14.96;57.52;95170.16;5073638;28;20448;-76
2021/05/04 04:06:17;;;;;;;5.23;4.83;;;;;;;14.99;57.08;95166.38;5074220;28;20426;-76
2021/05/04 04:08:45;;;;;;;6.00;4.83;;;;;;;15.01;56.64;95169.69;5073786;28;20434;-76
2021/05/04 04:11:11;;;;;;;5.53;5.00;;;;;;;15.05;56.35;95165.78;5073632;28;20512;-76
2021/05/04 04:13:39;;;;;;;5.17;4.67;;;;;;;15.12;56.13;95172.13;5073731;28;20444;-76
2021/05/04 04:16:05;;;;;;;5.23;4.73;;;;;;;15.29;55.70;95173.91;5055008;28;20434;-76
2021/05/04 04:18:31;;;;;;;6.80;5.43;;;;;;;15.35;54.35;95172.50;5073632;28;20444;-75
2021/05/04 04:20:58;;;;;;;7.37;4.67;;;;;;;15.36;54.79;95180.28;5072990;28;20509;-75
2021/05/04 04:23:24;;;;;;;5.50;5.10;;;;;;;15.35;54.46;95183.09;5072832;28;20488;-75
2021/05/04 04:25:51;;;;;;;8.53;4.80;;;;;;;15.30;54.72;95180.88;5072912;28;20507;-75
2021/05/04 04:28:19;;;;;;;6.93;5.20;;;;;;;15.30;54.97;95180.88;5072878;28;20455;-76
2021/05/04 04:30:46;;;;;;;4.83;4.33;;;;;;;15.29;54.95;95181.03;5072673;28;20444;-75
2021/05/04 04:33:12;;;;;;;5.80;5.20;;;;;;;15.26;54.51;95179.50;5072551;28;20455;-75
2021/05/04 04:35:39;;;;;;;7.13;5.30;;;;;;;15.15;54.15;95182.41;5072450;28;20508;-76
2021/05/04 04:38:05;;;;;;;5.47;4.97;;;;;;;15.08;54.60;95184.00;5072477;28;20448;-75
2021/05/04 04:40:31;;;;;;;4.53;4.23;;;;;;;15.02;54.90;95193.31;5072576;28;20444;-75
2021/05/04 04:42:58;;;;;;;5.33;4.80;;;;;;;14.89;54.60;95184.94;5072484;28;20481;-75
2021/05/04 04:45:24;;;;;;;5.87;4.73;;;;;;;14.82;54.62;95192.63;5072671;28;20484;-75
2021/05/04 04:47:51;;;;;;;5.63;4.67;;;;;;;14.88;55.34;95194.69;5072131;28;20454;-76
2021/05/04 04:50:18;;;;;;;5.70;4.47;;;;;;;14.95;54.29;95197.56;5073365;28;20943;-75
2021/05/04 04:52:44;;;;;;;7.90;4.90;;;;;;;15.12;54.18;95193.28;5073401;28;20873;-76
2021/05/04 04:55:11;;;;;;;4.67;4.20;;;;;;;15.43;53.29;95199.00;5073426;28;20444;-76
2021/05/04 04:57:37;;;;;;;6.13;4.43;;;;;;;15.82;52.46;95202.16;5054870;28;20771;-76
2021/05/04 05:00:04;;;;;;;7.60;5.10;;;;;;;16.22;50.09;95198.13;5072953;28;20921;-76
2021/05/04 05:02:31;;;;;;;6.00;4.27;;;;;;;16.42;49.57;95204.84;5073050;28;20483;-76
2021/05/04 05:04:58;;;;;;;5.80;4.50;;;;;;;16.59;49.61;95201.28;5072864;28;20449;-76
2021/05/04 05:07:24;;;;;;;6.10;4.27;;;;;;;16.64;49.09;95204.28;5076655;28;20444;-76
2021/05/04 05:09:51;;;;;;;7.53;4.17;;;;;;;16.68;48.95;95204.84;5077189;28;20877;-76
2021/05/04 05:12:17;;;;;;;4.40;4.00;;;;;;;16.84;47.43;95189.00;5075747;28;20924;-76
2021/05/04 05:14:43;;;;;;;5.87;4.30;;;;;;;16.91;47.46;95199.78;5077170;28;20943;-76
2021/05/04 05:17:11;;;;;;;6.93;4.10;;;;;;;16.99;48.64;95197.16;5077512;28;20467;-76
2021/05/04 05:19:37;;;;;;;4.93;4.43;;;;;;;17.25;46.76;95205.84;5077499;28;20444;-76
2021/05/04 05:22:06;;;;;;;4.40;4.00;;;;;;;17.57;46.11;95198.91;5077282;28;20484;-77
2021/05/04 05:24:33;;;;;;;5.60;4.20;;;;;;;17.59;45.35;95199.56;5077234;28;20440;-76
2021/05/04 05:27:01;;;;;;;4.00;3.70;;;;;;;17.76;44.87;95197.78;5077267;28;20451;-76
2021/05/04 05:29:29;;;;;;;6.07;4.47;;;;;;;17.96;44.62;95191.16;5058086;28;20852;-76
2021/05/04 05:31:56;;;;;;;5.57;4.47;;;;;;;17.89;44.48;95190.97;5077010;28;20468;-76
2021/05/04 05:34:22;;;;;;;5.23;4.73;;;;;;;17.62;44.91;95186.78;5077006;28;20447;-77
2021/05/04 05:36:49;;;;;;;4.50;4.10;;;;;;;17.55;45.18;95195.59;5076621;28;20768;-77
2021/05/04 05:39:16;;;;;;;5.10;4.67;;;;;;;17.45;45.54;95189.63;5041337;28;20487;-76
2021/05/04 05:41:43;;;;;;;4.70;4.40;;;;;;;17.57;45.73;95183.81;5076639;28;20493;-76
2021/05/04 05:44:09;;;;;;;8.83;4.90;;;;;;;17.65;46.45;95183.84;5076556;28;20454;-76
2021/05/04 05:46:36;;;;;;;5.40;4.90;;;;;;;18.09;46.20;95180.00;5074668;28;20500;-75
2021/05/04 05:49:03;;;;;;;4.93;4.53;;;;;;;18.49;44.19;95165.75;5058016;28;20453;-76
2021/05/04 05:51:29;;;;;;;5.73;4.60;;;;;;;18.70;43.99;95170.53;5076324;28;20934;-76
2021/05/04 05:53:55;;;;;;;4.97;4.43;;;;;;;18.83;42.48;95163.66;5076129;28;20785;-76
2021/05/04 05:56:23;;;;;;;5.03;4.60;;;;;;;18.99;43.04;95157.41;5076423;28;20542;-76
2021/05/04 05:58:49;;;;;;;5.77;4.50;;;;;;;19.54;41.77;95161.75;5076331;28;20443;-76
2021/05/04 06:01:16;;;;;;;5.10;4.70;;;;;;;19.82;40.82;95153.19;5076046;28;20441;-76
2021/05/04 06:03:43;;;;;;;4.20;3.90;;;;;;;20.31;39.56;95145.56;5074205;28;20898;-77
2021/05/04 06:06:09;;;;;;;5.07;4.57;;;;;;;20.47;39.20;95144.56;5057898;28;20769;-76
2021/05/04 06:08:35;;;;;;;4.80;4.00;;;;;;;20.60;38.35;95148.25;5076037;28;20463;-76
2021/05/04 06:11:02;;;;;;;5.67;4.30;;;;;;;20.65;38.15;95140.50;5075986;28;20497;-76
2021/05/04 06:13:29;;;;;;;4.80;4.20;;;;;;;20.65;38.14;95151.16;5076313;28;20451;-76
2021/05/04 06:15:55;;;;;;;6.37;4.60;;;;;;;20.75;38.46;95144.72;5076359;28;20456;-76
2021/05/04 06:18:22;;;;;;;8.33;4.03;;;;;;;20.51;39.37;95138.66;5040517;28;20443;-76
2021/05/04 06:20:48;;;;;;;5.27;4.77;;;;;;;20.62;38.75;95145.38;5075608;28;20454;-76
2021/05/04 06:23:14;;;;;;;10.37;5.07;;;;;;;20.90;38.60;95133.03;5075668;28;20482;-76
2021/05/04 06:25:41;;;;;;;5.00;4.60;;;;;;;21.05;36.86;95130.28;5075932;28;20437;-76
2021/05/04 06:28:09;;;;;;;4.93;4.53;;;;;;;21.03;37.44;95127.00;5076062;28;20497;-76
2021/05/04 06:30:37;;;;;;;5.10;4.03;;;;;;;21.14;37.30;95125.69;5076069;28;20468;-76
2021/05/04 06:33:06;;;;;;;5.60;5.10;;;;;;;21.63;37.17;95123.09;5075777;28;20441;-76
2021/05/04 06:35:34;;;;;;;4.07;3.50;;;;;;;22.07;36.47;95130.06;5076071;28;20498;-76
2021/05/04 06:38:00;;;;;;;6.50;4.87;;;;;;;22.59;35.83;95123.41;5073896;28;20438;-76
2021/05/04 06:40:27;;;;;;;4.83;4.43;;;;;;;22.84;34.76;95117.38;5075475;28;20447;-76
2021/05/04 06:42:53;;;;;;;5.57;4.60;;;;;;;23.13;34.93;95121.59;5075329;28;20856;-76
2021/05/04 06:45:19;;;;;;;5.20;4.53;;;;;;;23.54;33.70;95123.31;5075364;28;20501;-77
2021/05/04 06:47:47;;;;;;;5.33;4.27;;;;;;;23.47;33.55;95114.44;5075246;28;20440;-77
2021/05/04 06:50:13;;;;;;;5.77;4.40;;;;;;;23.42;33.96;95114.22;5056839;28;20501;-77
2021/05/04 06:52:39;;;;;;;5.33;4.27;;;;;;;23.35;33.84;95118.72;5075006;28;20463;-76
2021/05/04 06:55:06;;;;;;;9.20;5.60;;;;;;;23.30;34.02;95105.94;5075217;28;20443;-76
2021/05/04 06:57:33;;;;;;;5.87;4.47;;;;;;;22.85;33.93;95113.66;5056625;28;20505;-76
2021/05/04 06:59:59;;;;;;;5.33;4.83;;;;;;;22.75;34.50;95113.16;5056534;28;20447;-76
2021/05/04 07:02:26;;;;;;;5.97;4.83;;;;;;;22.48;35.43;95111.38;5075486;28;20483;-76
2021/05/04 07:04:53;;;;;;;5.33;4.80;;;;;;;21.94;36.39;95104.84;5075281;28;20442;-76
2021/05/04 07:07:20;;;;;;;5.53;5.10;;;;;;;21.37;36.61;95107.66;5074798;28;20441;-76
2021/05/04 07:09:46;;;;;;;8.00;4.77;;;;;;;20.84;37.16;95096.44;5075019;28;20452;-77
2021/05/04 07:12:12;;;;;;;4.80;4.40;;;;;;;20.64;37.34;95093.53;5074766;28;20459;-76
2021/05/04 07:14:39;;;;;;;6.90;4.23;;;;;;;20.65;37.98;95089.00;5039688;28;20445;-77
2021/05/04 07:17:06;;;;;;;5.70;4.90;;;;;;;20.73;38.61;95083.56;5056262;28;20509;-76
2021/05/04 07:19:33;;;;;;;7.07;5.37;;;;;;;20.93;38.73;95079.28;5074811;28;20597;-77
2021/05/04 07:22:00;;;;;;;8.73;4.80;;;;;;;21.00;38.71;95087.34;5074717;28;20486;-77
2021/05/04 07:24:26;;;;;;;7.53;4.57;;;;;;;21.01;38.67;95089.81;5074468;28;20447;-77
2021/05/04 07:26:52;;;;;;;5.60;3.97;;;;;;;21.11;37.34;95083.38;5074881;28;20448;-76
2021/05/04 07:29:19;;;;;;;8.10;4.83;;;;;;;20.91;38.68;95081.31;5073803;28;20441;-76
2021/05/04 07:31:45;;;;;;;5.90;4.40;;;;;;;21.06;39.45;95081.25;5074635;28;20444;-77
2021/05/04 07:34:11;;;;;;;7.40;4.13;;;;;;;21.09;37.90;95072.84;5074731;28;20451;-76
2021/05/04 07:36:38;;;;;;;4.87;4.37;;;;;;;21.17;37.16;95072.75;5072247;28;20984;-77
2021/05/04 07:39:06;;;;;;;4.57;4.00;;;;;;;21.30;37.76;95074.75;5074244;28;20436;-76
2021/05/04 07:41:32;;;;;;;8.77;3.93;;;;;;;21.17;37.16;95078.09;5074154;28;20451;-77
2021/05/04 07:43:59;;;;;;;4.97;4.50;;;;;;;21.14;36.10;95086.47;5074580;28;20429;-76
2021/05/04 07:46:25;;;;;;;9.83;4.10;;;;;;;21.22;35.96;95082.84;5074120;28;20449;-77
2021/05/04 07:48:54;;;;;;;3.93;3.30;;;;;;;21.41;36.38;95078.75;5074308;28;20441;-76
2021/05/04 07:51:20;;;;;;;4.80;4.40;;;;;;;21.74;35.37;95077.19;5074198;28;20499;-76
2021/05/04 07:53:46;;;;;;;7.20;5.07;;;;;;;22.13;35.27;95076.66;5074283;28;20480;-77
2021/05/04 07:56:14;;;;;;;5.13;3.97;;;;;;;22.40;35.44;95069.59;5074239;28;20832;-76
2021/05/04 07:58:40;;;;;;;4.33;4.03;;;;;;;22.33;35.12;95070.59;5055526;28;20503;-77
2021/05/04 08:01:09;;;;;;;5.00;4.60;;;;;;;22.38;34.94;95068.16;5074135;28;20442;-77
2021/05/04 08:03:37;;;;;;;5.23;4.10;;;;;;;22.54;34.55;95079.31;5074097;28;20520;-77
2021/05/04 08:06:04;;;;;;;8.90;3.90;;;;;;;22.90;34.33;95067.56;5074209;28;20513;-77
2021/05/04 08:08:30;;;;;;;4.67;4.30;;;;;;;23.19;34.60;95071.75;5073826;28;20470;-77
2021/05/04 08:10:57;;;;;;;4.80;4.40;;;;;;;23.26;33.73;95069.91;5073461;28;20474;-77
2021/05/04 08:13:24;;;;;;;5.00;4.60;;;;;;;23.53;33.54;95062.72;5073789;28;20789;-77
2021/05/04 08:15:52;;;;;;;4.60;4.20;;;;;;;23.74;32.37;95051.00;5074104;28;20427;-77
2021/05/04 08:18:19;;;;;;;5.00;4.50;;;;;;;23.61;31.83;95048.31;5073725;28;20444;-77
2021/05/04 08:20:48;;;;;;;4.33;3.23;;;;;;;23.40;32.10;95046.63;5073665;28;20449;-76
2021/05/04 08:23:15;;;;;;;4.50;4.20;;;;;;;23.14;33.00;95044.78;5073806;28;21047;-77
2021/05/04 08:25:42;;;;;;;9.03;4.40;;;;;;;23.04;31.85;95036.28;5073614;28;20759;-77
2021/05/04 08:28:08;;;;;;;165.43;25.10;;;;;;;23.14;32.56;95026.84;5073900;28;20461;-77
2021/05/04 08:30:36;;;;;;;5.90;4.80;;;;;;;23.17;33.01;95033.66;5073566;28;20442;-76
2021/05/04 08:33:03;;;;;;;5.23;3.90;;;;;;;23.16;31.54;95024.78;5073423;28;20450;-77
2021/05/04 08:35:30;;;;;;;5.10;3.83;;;;;;;23.12;31.81;95022.69;5073479;28;20446;-76
2021/05/04 08:37:57;;;;;;;3.50;3.20;;;;;;;22.98;31.43;95027.22;5073426;28;20479;-76
2021/05/04 08:40:24;;;;;;;5.90;3.37;;;;;;;22.63;30.06;95031.84;5073272;28;20516;-76
2021/05/04 08:42:51;;;;;;;6.00;4.20;;;;;;;22.56;31.57;95028.31;5054999;28;20486;-76
2021/05/04 08:45:17;;;;;;;4.23;3.20;;;;;;;22.44;31.81;95028.06;5073010;28;20453;-76
2021/05/04 08:47:46;;;;;;;4.40;3.60;;;;;;;22.42;30.71;95031.97;5073720;28;20921;-76
2021/05/04 08:50:14;;;;;;;15.13;3.90;;;;;;;22.70;31.54;95024.66;5073525;28;20548;-75
2021/05/04 08:52:40;;;;;;;43.97;9.17;;;;;;;22.83;31.79;95022.03;5072770;28;20454;-75
2021/05/04 08:55:08;;;;;;;5.67;3.70;;;;;;;23.13;32.50;95016.31;5037731;28;20473;-75
2021/05/04 08:57:36;;;;;;;6.70;3.30;;;;;;;22.81;31.34;95010.72;5073771;28;20439;-76
2021/05/04 09:00:05;;;;;;;4.67;3.37;;;;;;;22.49;30.62;95011.41;5072940;28;20458;-76
2021/05/04 09:02:35;;;;;;;5.30;3.30;;;;;;;22.42;32.11;95011.38;5073196;28;20525;-76
2021/05/04 09:05:15;;;;;;;9.23;3.20;;;;;;;22.34;31.82;94992.03;5073602;28;20444;-75
2021/05/04 09:07:42;;;;;;;3.50;2.67;;;;;;;22.29;31.52;95002.50;5073295;28;20492;-76
2021/05/04 09:10:20;;;;;;;4.50;3.20;;;;;;;22.21;31.80;94998.13;5073188;28;20875;-76
2021/05/04 09:12:51;;;;;;;4.87;3.27;;;;;;;21.96;31.93;94998.59;5073085;28;20454;-77
2021/05/04 09:15:59;;;;;;;3.17;2.90;;;;;;;21.44;32.50;95001.78;5073429;28;20802;-75
2021/05/04 09:18:39;;;;;;;5.33;3.47;;;;;;;21.81;33.47;94997.06;5073241;28;20517;-76
2021/05/04 09:21:08;;;;;;;6.43;3.33;;;;;;;21.80;32.56;94990.91;5054296;28;20835;-76
2021/05/04 09:23:36;;;;;;;7.07;3.60;;;;;;;21.99;31.32;94989.38;5073238;28;20570;-76
2021/05/04 09:26:02;;;;;;;7.23;3.80;;;;;;;22.13;33.36;94990.28;5072868;28;20443;-75
2021/05/04 09:28:29;;;;;;;7.00;3.43;;;;;;;22.28;33.13;94977.63;5072907;28;20446;-76
2021/05/04 09:30:57;;;;;;;4.10;3.80;;;;;;;22.47;33.39;94974.16;5072840;28;20455;-75
2021/05/04 09:33:24;;;;;;;4.77;3.80;;;;;;;22.44;32.12;94968.41;5072624;28;20451;-76
2021/05/04 09:35:50;;;;;;;11.33;3.20;;;;;;;22.22;32.87;94967.69;5072912;28;20458;-76
2021/05/04 09:38:19;;;;;;;4.27;3.87;;;;;;;22.40;33.09;94972.50;5072522;28;20450;-76
2021/05/04 09:40:47;;;;;;;6.97;3.63;;;;;;;22.62;33.12;94963.31;5072740;28;20453;-76
2021/05/04 09:43:15;;;;;;;5.57;3.97;;;;;;;22.63;33.00;94962.28;5072863;28;20581;-76
2021/05/04 09:45:44;;;;;;;4.77;3.47;;;;;;;22.42;33.74;94959.75;5072584;28;20933;-76
2021/05/04 09:48:18;;;;;;;3.60;3.33;;;;;;;22.34;33.94;94949.25;5072470;28;20461;-76
2021/05/04 09:50:51;;;;;;;5.80;3.47;;;;;;;22.44;33.45;94949.69;5072303;28;20451;-76
2021/05/04 09:53:23;;;;;;;4.57;3.90;;;;;;;22.50;33.62;94948.88;5073669;28;20480;-76
2021/05/04 09:55:54;;;;;;;5.27;3.53;;;;;;;22.65;33.09;94952.22;5075617;28;20931;-76
2021/05/04 09:58:37;;;;;;;4.37;3.70;;;;;;;22.56;34.29;94946.22;5075701;28;20509;-75
2021/05/04 10:01:06;;;;;;;4.83;3.50;;;;;;;22.53;35.96;94940.44;5076135;28;20464;-76
2021/05/04 10:03:34;;;;;;;3.90;3.60;;;;;;;22.69;34.93;94947.28;5075812;28;20485;-76
2021/05/04 10:06:03;;;;;;;4.07;3.20;;;;;;;22.53;34.34;94945.78;5075935;28;20926;-76
2021/05/04 10:08:32;;;;;;;4.20;3.80;;;;;;;22.62;33.78;94941.91;5076473;28;20499;-76
2021/05/04 10:11:01;;;;;;;6.13;3.73;;;;;;;22.73;34.32;94952.00;5076388;28;20513;-76
2021/05/04 10:13:29;;;;;;;5.27;3.40;;;;;;;22.91;33.95;94943.44;5076340;28;20445;-76
2021/05/04 10:15:57;;;;;;;8.03;3.60;;;;;;;22.89;33.07;94933.97;5075955;28;20454;-76
2021/05/04 10:18:24;;;;;;;7.60;3.40;;;;;;;22.73;33.01;94927.94;5040388;28;20470;-75
2021/05/04 10:20:54;;;;;;;4.40;3.37;;;;;;;22.79;34.03;94924.44;5075744;28;20513;-76
2021/05/04 10:23:22;;;;;;;3.50;3.20;;;;;;;22.87;34.07;94928.81;5073440;28;20483;-76
2021/05/04 10:25:52;;;;;;;4.13;3.73;;;;;;;22.75;33.79;94927.72;5075884;28;20452;-76
2021/05/04 10:28:20;;;;;;;3.50;2.80;;;;;;;22.64;34.86;94926.50;5075777;28;20439;-76
2021/05/04 10:30:47;;;;;;;3.83;3.40;;;;;;;22.64;33.45;94917.63;5075527;28;20443;-77
2021/05/04 10:33:28;;;;;;;7.70;4.20;;;;;;;22.73;34.70;94922.59;5075622;28;20530;-76
2021/05/04 10:35:55;;;;;;;4.43;3.37;;;;;;;22.81;33.67;94918.91;5075917;28;20463;-76
2021/05/04 10:38:22;;;;;;;6.07;3.60;;;;;;;22.93;34.14;94928.00;5075357;28;20462;-76
2021/05/04 10:41:00;;;;;;;5.43;3.60;;;;;;;22.96;33.99;94927.56;5074625;28;20467;-77
2021/05/04 10:43:39;;;;;;;3.80;3.27;;;;;;;22.91;33.55;94919.34;5074671;28;20996;-76
2021/05/04 10:46:14;;;;;;;5.60;3.17;;;;;;;22.43;34.29;94905.25;5074359;28;20949;-76
2021/05/04 10:48:45;;;;;;;7.43;4.07;;;;;;;22.52;34.29;94904.03;5074693;28;20446;-75
2021/05/04 10:51:13;;;;;;;3.37;3.07;;;;;;;22.53;35.24;94898.47;5056085;28;20748;-77
2021/05/04 10:54:04;;;;;;;4.70;3.47;;;;;;;22.52;35.02;94887.97;5074606;28;20454;-76
2021/05/04 10:56:37;;;;;;;4.30;3.90;;;;;;;22.47;34.58;94885.91;5074048;28;20454;-76
2021/05/04 10:59:04;;;;;;;6.20;3.67;;;;;;;22.59;35.38;94882.66;5055017;28;20525;-76
2021/05/04 11:01:30;;;;;;;5.60;4.57;;;;;;;22.68;36.04;94879.56;5073822;28;20452;-76
2021/05/04 11:03:58;;;;;;;4.50;3.67;;;;;;;22.93;35.40;94871.78;5072710;28;20549;-76
2021/05/04 11:06:45;;;;;;;3.70;3.40;;;;;;;23.03;33.98;94866.00;5073536;28;20458;-76
2021/05/04 11:09:21;;;;;;;3.83;3.53;;;;;;;23.01;35.02;94865.41;5073584;28;20451;-76
2021/05/04 11:11:52;;;;;;;4.23;3.37;;;;;;;22.81;33.97;94873.41;5073726;28;20847;-76
2021/05/04 11:14:30;;;;;;;4.57;3.23;;;;;;;22.94;33.22;94861.91;5073739;28;20451;-76
2021/05/04 11:17:22;;;;;;;5.13;4.20;;;;;;;23.04;35.33;94868.47;5073583;28;20857;-76
2021/05/04 11:19:48;;;;;;;4.67;4.07;;;;;;;22.93;34.17;94860.25;5073820;28;20649;-76
2021/05/04 11:22:25;;;;;;;4.80;3.87;;;;;;;23.14;34.61;94854.69;5073095;28;20452;-76
2021/05/04 11:24:54;;;;;;;4.37;3.97;;;;;;;23.34;34.50;94855.47;5073008;28;20483;-76
2021/05/04 11:27:33;;;;;;;4.33;3.80;;;;;;;23.37;34.23;94851.53;5073240;28;20945;-76
2021/05/04 11:30:03;;;;;;;5.10;3.63;;;;;;;23.16;33.83;94836.56;5073069;28;20448;-76
2021/05/04 11:32:44;;;;;;;4.00;3.30;;;;;;;23.12;34.14;94843.34;5073294;28;20931;-76
2021/05/04 11:35:12;;;;;;;5.00;4.33;;;;;;;23.18;33.95;94829.97;5072958;28;20486;-76
2021/05/04 11:37:43;;;;;;;4.07;3.67;;;;;;;22.95;33.54;94828.75;5073047;28;21024;-76